Miami — IBXM — position and weather

sailwx.info

Track history (hours):
 
Tides and Currents Weather Stations Pressure Air Temp Water Temp Dewpoint Dewpoint Depression Visibility Wind Speed Wind Dir Waves Ship Positions

Miami

Last reported at 2018-Jan-01 22:29 UTC. Time now 2018-Jan-18 21:57 UTC.
Position N 34°31' E 025°13'.
Warning: this ship's position is 16 days out of date.

Length 176 m; draft 10.6 m.

Type: Ship (hazmat cat A). MMSI: 245178200.

Date/timePositionNaut miles runAvg speedWind from/ knotsBaromVisibWave heightAir tempDewpointWater temp
2018-Jan-01 22:29N 34°31' E 025°13'913.8
2018-Jan-01 21:48N 34°32' E 025°01'9813.0
2018-Jan-01 14:18N 34°55' E 023°06'513.4
2018-Jan-01 13:57N 34°57' E 023°01'4613.2
2018-Jan-01 10:28N 35°13' E 022°08'17513.0
2017-Dec-31 21:00N 36°14' E 018°45'612.8
2017-Dec-31 20:30N 36°16' E 018°38'147 3.1
2017-Dec-29 21:01N 37°14' E 015°50'0 1.3
2017-Dec-29 21:00N 37°14' E 015°50'3 1.2
2017-Dec-29 18:51N 37°13' E 015°47'1 1.5
2017-Dec-29 18:27N 37°12' E 015°47'1 1.2
2017-Dec-29 17:29N 37°11' E 015°46'338 7.2
2017-Dec-27 18:41N 36°24' E 022°44'1012.6
2017-Dec-27 17:55N 36°26' E 022°56'4611.4
2017-Dec-27 13:49N 36°57' E 023°38'412.9
2017-Dec-27 13:30N 37°01' E 023°41'2212.5
2017-Dec-27 11:45N 37°19' E 023°55'413.0
2017-Dec-27 11:28N 37°22' E 023°58'613.1
2017-Dec-27 11:00N 37°28' E 024°02'613.0
2017-Dec-27 10:30N 37°33' E 024°06'712.9
2017-Dec-27 09:58N 37°39' E 024°11'712.7
2017-Dec-27 09:27N 37°44' E 024°15'1213.1
2017-Dec-27 08:33N 37°51' E 024°27'113.6
2017-Dec-27 08:30N 37°52' E 024°28'812.9
2017-Dec-27 07:52N 37°57' E 024°36'254 9.7
2017-Dec-26 05:42N 40°52' E 028°34'211.9
2017-Dec-26 05:30N 40°52' E 028°37'712.1
2017-Dec-26 04:55N 40°54' E 028°46'512.6
2017-Dec-26 04:29N 40°56' E 028°52'2 3.5
2017-Dec-26 03:58N 40°57' E 028°55'1 1.8
2017-Dec-26 03:30N 40°57' E 028°56'2 4.6
2017-Dec-26 03:00N 40°58' E 028°58'6 8.6
2017-Dec-26 02:17N 41°04' E 029°03'611.7
2017-Dec-26 01:49N 41°09' E 029°04'  
2017-Dec-23 15:37N 43°52' E 038°34'313.4
2017-Dec-23 15:24N 43°53' E 038°38'513.3
2017-Dec-23 15:00N 43°55' E 038°45'613.0
2017-Dec-23 14:30N 43°57' E 038°53'612.9
2017-Dec-23 14:00N 43°60' E 039°02'510.6
2017-Dec-23 13:30N 44°05' E 039°04'1 1.2
2017-Dec-23 13:00N 44°05' E 039°04'0 0.0
2017-Dec-23 12:30N 44°05' E 039°04'0 0.0
2017-Dec-23 12:00N 44°05' E 039°04'0 0.0
2017-Dec-23 11:27N 44°05' E 039°04'0 0.0
2017-Dec-23 11:00N 44°05' E 039°04'0 0.0
2017-Dec-23 10:30N 44°05' E 039°04'0 0.0
2017-Dec-23 10:00N 44°05' E 039°04'0 0.0
2017-Dec-23 09:30N 44°05' E 039°04'0 0.0
2017-Dec-23 09:00N 44°05' E 039°04'0 0.0
2017-Dec-23 08:30N 44°05' E 039°04'0 0.0
2017-Dec-23 08:00N 44°05' E 039°04'0 0.0
2017-Dec-23 07:30N 44°05' E 039°04'0 0.0
2017-Dec-23 07:00N 44°05' E 039°04'0 0.0
2017-Dec-23 06:30N 44°05' E 039°04'0 0.0
2017-Dec-23 06:00N 44°05' E 039°04'0 0.0
2017-Dec-23 05:30N 44°05' E 039°04'0 0.0
2017-Dec-23 05:00N 44°05' E 039°04'0 0.0
2017-Dec-23 04:30N 44°05' E 039°04'0 0.0
2017-Dec-23 04:00N 44°05' E 039°04'0 0.0
2017-Dec-23 03:30N 44°05' E 039°04'0 0.0
2017-Dec-23 03:00N 44°05' E 039°04'0 0.0
2017-Dec-23 02:30N 44°05' E 039°04'0 0.0
2017-Dec-23 02:00N 44°05' E 039°04'0 0.0
2017-Dec-23 01:30N 44°05' E 039°04'0 0.0
2017-Dec-23 01:00N 44°05' E 039°04'0 0.0
2017-Dec-23 00:30N 44°05' E 039°04'0 0.0
2017-Dec-23 00:00N 44°05' E 039°04'0 0.0
2017-Dec-22 23:30N 44°05' E 039°04'0 0.0
2017-Dec-22 23:00N 44°05' E 039°04'0 0.0
2017-Dec-22 22:30N 44°05' E 039°04'  
Track history (hours):
 
Tides and Currents Weather Stations Pressure Air Temp Water Temp Dewpoint Dewpoint Depression Visibility Wind Speed Wind Dir Waves Ship Positions

Miami

Last reported at 2018-Jan-01 22:29 UTC. Time now 2018-Jan-18 21:57 UTC.
Position N 34°31' E 025°13'.
Warning: this ship's position is 16 days out of date.

Length 176 m; draft 10.6 m.

Type: Ship (hazmat cat A). MMSI: 245178200.

Date/timePositionNaut miles runAvg speedWind from/ knotsBaromVisibWave heightAir tempDewpointWater temp
2018-Jan-01 22:29N 34°31' E 025°13'913.8
2018-Jan-01 21:48N 34°32' E 025°01'9813.0
2018-Jan-01 14:18N 34°55' E 023°06'513.4
2018-Jan-01 13:57N 34°57' E 023°01'4613.2
2018-Jan-01 10:28N 35°13' E 022°08'17513.0
2017-Dec-31 21:00N 36°14' E 018°45'612.8
2017-Dec-31 20:30N 36°16' E 018°38'147 3.1
2017-Dec-29 21:01N 37°14' E 015°50'0 1.3
2017-Dec-29 21:00N 37°14' E 015°50'3 1.2
2017-Dec-29 18:51N 37°13' E 015°47'1 1.5
2017-Dec-29 18:27N 37°12' E 015°47'1 1.2
2017-Dec-29 17:29N 37°11' E 015°46'338 7.2
2017-Dec-27 18:41N 36°24' E 022°44'1012.6
2017-Dec-27 17:55N 36°26' E 022°56'4611.4
2017-Dec-27 13:49N 36°57' E 023°38'412.9
2017-Dec-27 13:30N 37°01' E 023°41'2212.5
2017-Dec-27 11:45N 37°19' E 023°55'413.0
2017-Dec-27 11:28N 37°22' E 023°58'613.1
2017-Dec-27 11:00N 37°28' E 024°02'613.0
2017-Dec-27 10:30N 37°33' E 024°06'712.9
2017-Dec-27 09:58N 37°39' E 024°11'712.7
2017-Dec-27 09:27N 37°44' E 024°15'1213.1
2017-Dec-27 08:33N 37°51' E 024°27'113.6
2017-Dec-27 08:30N 37°52' E 024°28'812.9
2017-Dec-27 07:52N 37°57' E 024°36'254 9.7
2017-Dec-26 05:42N 40°52' E 028°34'211.9
2017-Dec-26 05:30N 40°52' E 028°37'712.1
2017-Dec-26 04:55N 40°54' E 028°46'512.6
2017-Dec-26 04:29N 40°56' E 028°52'2 3.5
2017-Dec-26 03:58N 40°57' E 028°55'1 1.8
2017-Dec-26 03:30N 40°57' E 028°56'2 4.6
2017-Dec-26 03:00N 40°58' E 028°58'6 8.6
2017-Dec-26 02:17N 41°04' E 029°03'611.7
2017-Dec-26 01:49N 41°09' E 029°04'  
2017-Dec-23 15:37N 43°52' E 038°34'313.4
2017-Dec-23 15:24N 43°53' E 038°38'513.3
2017-Dec-23 15:00N 43°55' E 038°45'613.0
2017-Dec-23 14:30N 43°57' E 038°53'612.9
2017-Dec-23 14:00N 43°60' E 039°02'510.6
2017-Dec-23 13:30N 44°05' E 039°04'1 1.2
2017-Dec-23 13:00N 44°05' E 039°04'0 0.0
2017-Dec-23 12:30N 44°05' E 039°04'0 0.0
2017-Dec-23 12:00N 44°05' E 039°04'0 0.0
2017-Dec-23 11:27N 44°05' E 039°04'0 0.0
2017-Dec-23 11:00N 44°05' E 039°04'0 0.0
2017-Dec-23 10:30N 44°05' E 039°04'0 0.0
2017-Dec-23 10:00N 44°05' E 039°04'0 0.0
2017-Dec-23 09:30N 44°05' E 039°04'0 0.0
2017-Dec-23 09:00N 44°05' E 039°04'0 0.0
2017-Dec-23 08:30N 44°05' E 039°04'0 0.0
2017-Dec-23 08:00N 44°05' E 039°04'0 0.0
2017-Dec-23 07:30N 44°05' E 039°04'0 0.0
2017-Dec-23 07:00N 44°05' E 039°04'0 0.0
2017-Dec-23 06:30N 44°05' E 039°04'0 0.0
2017-Dec-23 06:00N 44°05' E 039°04'0 0.0
2017-Dec-23 05:30N 44°05' E 039°04'0 0.0
2017-Dec-23 05:00N 44°05' E 039°04'0 0.0
2017-Dec-23 04:30N 44°05' E 039°04'0 0.0
2017-Dec-23 04:00N 44°05' E 039°04'0 0.0
2017-Dec-23 03:30N 44°05' E 039°04'0 0.0
2017-Dec-23 03:00N 44°05' E 039°04'0 0.0
2017-Dec-23 02:30N 44°05' E 039°04'0 0.0
2017-Dec-23 02:00N 44°05' E 039°04'0 0.0
2017-Dec-23 01:30N 44°05' E 039°04'0 0.0
2017-Dec-23 01:00N 44°05' E 039°04'0 0.0
2017-Dec-23 00:30N 44°05' E 039°04'0 0.0
2017-Dec-23 00:00N 44°05' E 039°04'0 0.0
2017-Dec-22 23:30N 44°05' E 039°04'0 0.0
2017-Dec-22 23:00N 44°05' E 039°04'0 0.0
2017-Dec-22 22:30N 44°05' E 039°04'  

Dump ship's entire track history